createdAt,value
2022-10-31T00:01:23.871Z,7.22
2022-10-31T00:03:51.565Z,7.53
2022-10-31T00:06:21.061Z,7.90
2022-10-31T00:08:48.481Z,6.35
2022-10-31T00:11:15.092Z,5.38
2022-10-31T00:13:41.708Z,6.80
2022-10-31T00:16:17.254Z,6.80
2022-10-31T00:18:43.887Z,8.30
2022-10-31T00:21:10.559Z,10.93
2022-10-31T00:23:37.187Z,13.05
2022-10-31T00:26:04.240Z,13.45
2022-10-31T00:28:31.604Z,11.95
2022-10-31T00:31:05.355Z,10.30
2022-10-31T00:33:33.587Z,10.65
2022-10-31T00:36:00.162Z,9.35
2022-10-31T00:38:26.810Z,10.13
2022-10-31T00:40:53.458Z,13.68
2022-10-31T00:43:20.083Z,35.30
2022-10-31T00:45:46.669Z,36.30
2022-10-31T00:48:13.327Z,27.30
2022-10-31T00:50:40.121Z,13.68
2022-10-31T00:53:06.794Z,16.42
2022-10-31T00:55:33.504Z,12.43
2022-10-31T00:58:00.394Z,9.88
2022-10-31T01:00:27.394Z,11.30
2022-10-31T01:02:54.033Z,11.02
2022-10-31T01:05:20.682Z,11.60
2022-10-31T01:07:47.325Z,10.57
2022-10-31T01:10:13.970Z,9.60
2022-10-31T01:12:41.331Z,10.98
2022-10-31T01:15:08.957Z,8.95
2022-10-31T01:17:35.585Z,9.10
2022-10-31T01:20:02.199Z,9.77
2022-10-31T01:22:28.815Z,6.20
2022-10-31T01:24:55.412Z,5.97
2022-10-31T01:27:22.125Z,6.28
2022-10-31T01:29:48.763Z,4.85
2022-10-31T01:32:15.369Z,4.75
2022-10-31T01:34:41.968Z,4.40
2022-10-31T01:37:08.596Z,4.80
2022-10-31T01:39:35.193Z,4.30
2022-10-31T01:42:01.823Z,4.40
2022-10-31T01:44:28.335Z,6.05
2022-10-31T01:47:04.294Z,7.68
2022-10-31T01:49:35.300Z,6.25
2022-10-31T01:52:23.689Z,5.60
2022-10-31T01:54:57.554Z,6.22
2022-10-31T01:57:24.171Z,5.97
2022-10-31T01:59:52.355Z,4.20
2022-10-31T02:02:19.187Z,5.10
2022-10-31T02:04:46.337Z,6.28
2022-10-31T02:07:15.465Z,4.05
2022-10-31T02:09:42.155Z,3.85
2022-10-31T02:12:09.525Z,4.68
2022-10-31T02:14:36.144Z,6.40
2022-10-31T02:17:02.727Z,8.57
2022-10-31T02:20:10.725Z,6.97
2022-10-31T02:22:50.056Z,7.03
2022-10-31T02:25:45.530Z,6.60
2022-10-31T02:28:51.326Z,5.82
2022-10-31T02:31:26.471Z,7.03
2022-10-31T02:34:00.374Z,6.00
2022-10-31T02:36:34.130Z,5.07
2022-10-31T02:39:09.402Z,7.18
2022-10-31T02:41:54.080Z,7.85
2022-10-31T02:44:40.788Z,7.10
2022-10-31T02:47:13.437Z,8.43
2022-10-31T02:49:39.931Z,18.60
2022-10-31T02:52:20.186Z,16.30
2022-10-31T02:54:47.377Z,12.38
2022-10-31T02:57:13.988Z,9.55
2022-10-31T02:59:43.500Z,11.60
2022-10-31T03:02:28.548Z,7.60
2022-10-31T03:05:02.148Z,5.03
2022-10-31T03:07:42.232Z,5.43
2022-10-31T03:10:20.317Z,4.68
2022-10-31T03:12:55.885Z,4.60
2022-10-31T03:15:33.368Z,5.03
2022-10-31T03:18:06.064Z,5.20
2022-10-31T03:20:39.324Z,4.80
2022-10-31T03:23:08.209Z,6.78
2022-10-31T03:25:35.545Z,6.80
2022-10-31T03:28:02.756Z,5.57
2022-10-31T03:30:30.225Z,9.68
2022-10-31T03:32:57.269Z,8.02
2022-10-31T03:35:24.868Z,6.85
2022-10-31T03:37:52.804Z,5.90
2022-10-31T03:40:20.336Z,4.75
2022-10-31T03:42:51.432Z,5.00
2022-10-31T03:45:40.610Z,6.25
2022-10-31T03:48:07.209Z,7.50
2022-10-31T03:50:41.500Z,6.55
2022-10-31T03:53:17.281Z,5.07
2022-10-31T03:56:05.799Z,5.80
2022-10-31T03:58:39.308Z,4.68
2022-10-31T04:01:07.333Z,4.50
2022-10-31T04:03:35.072Z,5.53
2022-10-31T04:06:04.954Z,3.83
2022-10-31T04:08:32.539Z,3.53
2022-10-31T04:10:59.695Z,3.72
2022-10-31T04:13:28.847Z,4.22
2022-10-31T04:15:55.688Z,5.03
2022-10-31T04:18:23.954Z,4.85
2022-10-31T04:20:51.087Z,5.03
2022-10-31T04:23:23.434Z,5.07
2022-10-31T04:25:50.086Z,3.75
2022-10-31T04:28:16.767Z,3.70
2022-10-31T04:30:43.370Z,4.80
2022-10-31T04:33:10.005Z,5.65
2022-10-31T04:35:36.638Z,5.07
2022-10-31T04:38:03.371Z,4.80
2022-10-31T04:40:30.006Z,6.32
2022-10-31T04:42:56.698Z,4.35
2022-10-31T04:45:23.382Z,6.18
2022-10-31T04:47:50.005Z,4.95
2022-10-31T04:50:16.711Z,4.53
2022-10-31T04:52:44.193Z,4.00
2022-10-31T04:55:11.155Z,3.63
2022-10-31T04:58:01.827Z,3.53
2022-10-31T05:00:28.731Z,3.67
2022-10-31T05:02:56.849Z,4.00
2022-10-31T05:05:28.704Z,4.53
2022-10-31T05:07:55.398Z,3.83
2022-10-31T05:10:24.367Z,3.70
2022-10-31T05:13:01.841Z,4.10
2022-10-31T05:15:29.116Z,4.88
2022-10-31T05:17:55.843Z,4.65
2022-10-31T05:20:24.222Z,4.05
2022-10-31T05:22:52.098Z,4.20
2022-10-31T05:25:19.237Z,4.13
2022-10-31T05:27:47.181Z,3.25
2022-10-31T05:30:15.267Z,4.18
2022-10-31T05:32:46.263Z,3.92
2022-10-31T05:35:14.633Z,3.97
2022-10-31T05:37:41.323Z,4.20
2022-10-31T05:40:09.446Z,5.20
2022-10-31T05:42:36.220Z,5.72
2022-10-31T05:45:02.893Z,4.63
2022-10-31T05:47:29.484Z,6.03
2022-10-31T05:49:56.122Z,8.02
2022-10-31T05:52:22.699Z,6.35
2022-10-31T05:54:49.282Z,4.88
2022-10-31T05:57:15.881Z,4.60
2022-10-31T05:59:42.558Z,5.45
2022-10-31T06:02:09.155Z,4.78
2022-10-31T06:04:35.791Z,4.90
2022-10-31T06:07:02.450Z,6.15
2022-10-31T06:09:29.170Z,5.97
2022-10-31T06:11:55.803Z,4.30
2022-10-31T06:14:22.429Z,7.40
2022-10-31T06:16:49.044Z,5.15
2022-10-31T06:19:15.771Z,4.25
2022-10-31T06:21:42.377Z,4.80
2022-10-31T06:24:08.956Z,4.10
2022-10-31T06:26:35.570Z,6.32
2022-10-31T06:29:04.206Z,3.78
2022-10-31T06:31:31.113Z,6.43
2022-10-31T06:33:57.883Z,6.32
2022-10-31T06:36:24.680Z,7.10
2022-10-31T06:38:51.404Z,13.23
2022-10-31T06:41:18.017Z,19.77
2022-10-31T06:43:47.671Z,16.15
2022-10-31T06:46:14.391Z,16.55
2022-10-31T06:48:44.013Z,10.32
2022-10-31T06:51:10.735Z,10.10
2022-10-31T06:53:37.460Z,12.00
2022-10-31T06:56:04.225Z,7.82
2022-10-31T06:58:30.827Z,4.93
2022-10-31T07:01:00.560Z,4.22
2022-10-31T07:03:27.404Z,4.60
2022-10-31T07:05:56.579Z,4.40
2022-10-31T07:08:24.455Z,4.80
2022-10-31T07:10:55.979Z,5.50
2022-10-31T07:13:28.873Z,13.23
2022-10-31T07:15:59.836Z,21.02
2022-10-31T07:18:26.559Z,19.30
2022-10-31T07:20:53.593Z,13.18
2022-10-31T07:23:20.348Z,8.25
2022-10-31T07:25:47.237Z,6.50
2022-10-31T07:28:13.897Z,6.15
2022-10-31T07:30:40.578Z,6.38
2022-10-31T07:33:07.513Z,5.60
2022-10-31T07:35:35.991Z,4.95
2022-10-31T07:38:13.142Z,4.70
2022-10-31T07:40:40.341Z,4.60
2022-10-31T07:43:10.120Z,4.45
2022-10-31T07:45:40.659Z,4.70
2022-10-31T07:48:07.329Z,6.40
2022-10-31T07:50:36.684Z,7.43
2022-10-31T07:53:06.561Z,21.30
2022-10-31T07:55:33.450Z,8.98
2022-10-31T07:58:08.058Z,5.30
2022-10-31T08:03:03.387Z,17.00
2022-10-31T08:05:30.642Z,13.25
2022-10-31T08:07:57.856Z,9.85
2022-10-31T08:10:25.052Z,3.92
2022-10-31T08:13:01.497Z,4.00
2022-10-31T08:15:28.319Z,3.05
2022-10-31T08:17:55.084Z,2.47
2022-10-31T08:20:21.910Z,6.43
2022-10-31T08:22:58.615Z,6.53
2022-10-31T08:25:25.604Z,27.40
2022-10-31T08:27:53.588Z,7.90
2022-10-31T08:30:21.460Z,6.72
2022-10-31T08:32:48.337Z,3.70
2022-10-31T08:35:15.407Z,16.58
2022-10-31T08:37:42.427Z,8.80
2022-10-31T08:40:09.799Z,2.90
2022-10-31T08:42:36.588Z,3.20
2022-10-31T08:45:03.614Z,3.28
2022-10-31T08:47:30.386Z,3.35
2022-10-31T08:49:57.112Z,3.55
2022-10-31T08:52:51.231Z,4.30
2022-10-31T08:55:14.528Z,3.63
2022-10-31T08:57:41.217Z,3.80
2022-10-31T09:00:08.511Z,4.15
2022-10-31T09:02:35.263Z,5.60
2022-10-31T09:05:01.916Z,6.43
2022-10-31T09:07:28.599Z,5.47
2022-10-31T09:09:56.845Z,5.20
2022-10-31T09:12:24.957Z,4.70
2022-10-31T09:14:51.723Z,4.38
2022-10-31T09:17:18.402Z,3.60
2022-10-31T09:19:45.077Z,4.15
2022-10-31T09:22:11.777Z,3.95
2022-10-31T09:24:38.491Z,3.70
2022-10-31T09:27:05.162Z,4.63
2022-10-31T09:29:31.840Z,4.72
2022-10-31T09:31:58.667Z,4.30
2022-10-31T09:34:25.351Z,5.03
2022-10-31T09:36:52.043Z,4.80
2022-10-31T09:39:18.774Z,4.40
2022-10-31T09:42:02.482Z,5.40
2022-10-31T09:44:39.634Z,6.20
2022-10-31T09:47:09.581Z,6.53
2022-10-31T09:49:59.904Z,5.90
2022-10-31T09:52:34.070Z,5.53
2022-10-31T09:55:24.098Z,6.40
2022-10-31T09:57:51.055Z,5.45
2022-10-31T10:00:19.631Z,6.53
2022-10-31T10:02:52.831Z,8.05
2022-10-31T10:05:48.075Z,9.80
2022-10-31T10:08:19.483Z,10.13
2022-10-31T10:10:55.425Z,5.90
2022-10-31T10:13:53.131Z,6.63
2022-10-31T10:16:34.608Z,6.20
2022-10-31T10:19:18.084Z,9.60
2022-10-31T10:22:09.674Z,34.53
2022-10-31T10:25:04.008Z,16.67
2022-10-31T10:27:33.524Z,5.55
2022-10-31T10:30:20.311Z,7.70
2022-10-31T10:33:14.264Z,5.70
2022-10-31T10:35:47.308Z,5.93
2022-10-31T10:38:41.813Z,5.47
2022-10-31T10:41:34.264Z,7.63
2022-10-31T10:44:01.401Z,6.90
2022-10-31T10:47:10.990Z,5.22
2022-10-31T10:49:55.730Z,5.50
2022-10-31T10:52:50.522Z,6.00
2022-10-31T10:55:56.469Z,7.70
2022-10-31T10:58:23.130Z,4.88
2022-10-31T11:00:50.952Z,4.40
2022-10-31T11:03:18.548Z,4.60
2022-10-31T11:05:52.649Z,4.93
2022-10-31T11:08:29.221Z,4.95
2022-10-31T11:11:05.541Z,4.78
2022-10-31T11:13:32.660Z,4.97
2022-10-31T11:16:12.786Z,6.05
2022-10-31T11:18:42.947Z,4.15
2022-10-31T11:21:30.117Z,4.75
2022-10-31T11:24:24.299Z,4.30
2022-10-31T11:26:51.679Z,4.55
2022-10-31T11:29:28.239Z,4.82
2022-10-31T11:31:58.472Z,4.40
2022-10-31T11:34:28.230Z,4.28
2022-10-31T11:36:54.918Z,4.00
2022-10-31T11:39:23.544Z,4.40
2022-10-31T11:41:50.570Z,4.60
2022-10-31T11:44:30.024Z,5.28
2022-10-31T11:46:59.818Z,6.88
2022-10-31T11:49:35.093Z,7.20
2022-10-31T11:52:09.309Z,7.55
2022-10-31T11:54:51.185Z,8.63
2022-10-31T11:57:25.095Z,9.65
2022-10-31T11:59:53.632Z,23.10
2022-10-31T12:02:20.450Z,21.58
2022-10-31T12:04:50.181Z,13.73
2022-10-31T12:07:16.902Z,12.70
2022-10-31T12:09:43.671Z,14.38
2022-10-31T12:12:37.510Z,15.85
2022-10-31T12:15:13.558Z,23.98
2022-10-31T12:18:11.396Z,31.13
2022-10-31T12:20:56.457Z,33.55
2022-10-31T12:23:42.670Z,34.75
2022-10-31T12:26:32.443Z,39.40
2022-10-31T12:29:22.881Z,39.80
2022-10-31T12:32:01.825Z,36.28
2022-10-31T12:34:50.384Z,39.78
2022-10-31T12:37:20.586Z,32.03
2022-10-31T12:39:59.299Z,29.23
2022-10-31T12:42:44.720Z,23.20
2022-10-31T12:45:50.990Z,18.27
2022-10-31T12:48:30.234Z,18.02
2022-10-31T12:51:03.167Z,16.52
2022-10-31T12:53:54.510Z,17.70
2022-10-31T12:56:43.311Z,17.77
2022-10-31T12:59:12.364Z,20.00
2022-10-31T13:01:50.068Z,19.55
2022-10-31T13:04:50.805Z,21.05
2022-10-31T13:07:24.692Z,22.30
2022-10-31T13:10:00.467Z,25.97
2022-10-31T13:12:27.857Z,29.70
2022-10-31T13:15:17.077Z,28.15
2022-10-31T13:17:46.495Z,28.25
2022-10-31T13:20:25.854Z,31.35
2022-10-31T13:23:00.630Z,32.67
2022-10-31T13:25:31.177Z,33.35
2022-10-31T13:28:02.578Z,34.63
2022-10-31T13:30:32.526Z,37.88
2022-10-31T13:33:04.311Z,35.95
2022-10-31T13:35:51.279Z,30.45
2022-10-31T13:38:25.680Z,29.33
2022-10-31T13:41:02.177Z,20.92
2022-10-31T13:43:28.901Z,23.83
2022-10-31T13:45:56.422Z,18.10
2022-10-31T13:48:26.133Z,20.70
2022-10-31T13:50:57.676Z,24.67
2022-10-31T13:53:35.785Z,25.55
2022-10-31T13:56:16.885Z,19.77
2022-10-31T13:59:15.875Z,20.08
2022-10-31T14:01:52.196Z,17.70
2022-10-31T14:04:27.257Z,16.88
2022-10-31T14:07:10.178Z,15.00
2022-10-31T14:10:28.975Z,13.23
2022-10-31T14:13:17.224Z,14.38
2022-10-31T14:15:52.761Z,12.60
2022-10-31T14:18:30.223Z,14.15
2022-10-31T14:21:25.026Z,13.07
2022-10-31T14:23:55.306Z,13.60
2022-10-31T14:26:28.139Z,13.25
2022-10-31T14:29:17.073Z,13.52
2022-10-31T14:31:45.938Z,12.63
2022-10-31T14:34:12.509Z,13.80
2022-10-31T14:36:57.749Z,12.02
2022-10-31T14:39:24.815Z,13.07
2022-10-31T14:42:09.575Z,13.00
2022-10-31T14:45:10.363Z,14.88
2022-10-31T14:48:06.797Z,12.55
2022-10-31T14:50:45.461Z,12.25
2022-10-31T14:53:16.596Z,10.75
2022-10-31T14:55:46.141Z,14.45
2022-10-31T14:58:16.615Z,13.68
2022-10-31T15:00:44.082Z,12.50
2022-10-31T15:03:44.713Z,12.32
2022-10-31T15:06:21.114Z,14.43
2022-10-31T15:08:48.846Z,16.00
2022-10-31T15:11:19.548Z,15.18
2022-10-31T15:13:53.886Z,15.55
2022-10-31T15:16:23.902Z,15.02
2022-10-31T15:19:17.266Z,14.00
2022-10-31T15:21:47.547Z,14.23
2022-10-31T15:24:20.107Z,19.98
2022-10-31T15:26:52.188Z,22.23
2022-10-31T15:29:24.303Z,22.60
2022-10-31T15:32:01.905Z,22.88
2022-10-31T15:34:41.431Z,20.80
2022-10-31T15:37:15.824Z,19.05
2022-10-31T15:39:43.247Z,17.88
2022-10-31T15:42:36.367Z,21.75
2022-10-31T15:45:12.267Z,18.98
2022-10-31T15:47:38.994Z,14.02
2022-10-31T15:50:23.561Z,12.60
2022-10-31T15:52:51.439Z,15.07
2022-10-31T15:55:21.934Z,13.88
2022-10-31T15:57:50.201Z,13.32
2022-10-31T16:00:30.303Z,13.88
2022-10-31T16:03:06.048Z,15.63
2022-10-31T16:05:59.906Z,15.43
2022-10-31T16:08:29.340Z,16.90
2022-10-31T16:11:19.569Z,15.32
2022-10-31T16:13:58.167Z,14.32
2022-10-31T16:16:40.210Z,14.23
2022-10-31T16:19:06.896Z,16.90
2022-10-31T16:21:35.979Z,20.17
2022-10-31T16:24:13.198Z,20.50
2022-10-31T16:26:39.866Z,16.35
2022-10-31T16:29:38.656Z,13.95
2022-10-31T16:32:05.569Z,15.90
2022-10-31T16:34:32.197Z,15.07
2022-10-31T16:36:58.864Z,15.80
2022-10-31T16:39:25.494Z,15.43
2022-10-31T16:41:53.099Z,13.85
2022-10-31T16:44:24.616Z,15.57
2022-10-31T16:47:07.873Z,19.58
2022-10-31T16:49:34.480Z,26.73
2022-10-31T16:52:01.562Z,24.67
2022-10-31T16:54:29.919Z,25.40
2022-10-31T16:56:56.614Z,27.13
2022-10-31T16:59:23.312Z,27.77
2022-10-31T17:01:52.107Z,27.85
2022-10-31T17:04:19.385Z,32.13
2022-10-31T17:06:46.462Z,24.58
2022-10-31T17:09:13.186Z,27.77
2022-10-31T17:11:48.206Z,27.88
2022-10-31T17:14:16.307Z,24.20
2022-10-31T17:16:43.175Z,23.30
2022-10-31T17:19:13.107Z,23.58
2022-10-31T17:21:40.264Z,26.63
2022-10-31T17:24:07.603Z,25.70
2022-10-31T17:26:34.467Z,23.10
2022-10-31T17:29:07.069Z,22.55
2022-10-31T17:31:36.701Z,19.67
2022-10-31T17:34:05.373Z,19.33
2022-10-31T17:36:33.035Z,19.88
2022-10-31T17:39:00.306Z,21.50
2022-10-31T17:41:27.880Z,22.77
2022-10-31T17:44:01.602Z,20.65
2022-10-31T17:46:29.551Z,22.05
2022-10-31T17:48:56.815Z,22.85
2022-10-31T17:51:23.538Z,25.73
2022-10-31T17:53:50.250Z,25.42
2022-10-31T17:56:16.895Z,21.65
2022-10-31T17:58:43.701Z,22.50
2022-10-31T18:01:12.094Z,22.70
2022-10-31T18:03:38.895Z,24.50
2022-10-31T18:06:06.037Z,26.35
2022-10-31T18:08:35.090Z,27.58
2022-10-31T18:11:09.693Z,22.77
2022-10-31T18:13:36.807Z,20.73
2022-10-31T18:16:08.289Z,22.15
2022-10-31T18:18:34.945Z,24.20
2022-10-31T18:21:01.600Z,23.20
2022-10-31T18:23:28.281Z,23.73
2022-10-31T18:25:55.269Z,20.27
2022-10-31T18:28:21.932Z,21.73
2022-10-31T18:30:48.623Z,22.08
2022-10-31T18:33:15.298Z,21.55
2022-10-31T18:35:42.034Z,22.08
2022-10-31T18:38:09.401Z,23.35
2022-10-31T18:40:36.372Z,23.95
2022-10-31T18:43:03.601Z,23.05
2022-10-31T18:45:41.757Z,22.85
2022-10-31T18:48:14.558Z,19.20
2022-10-31T18:50:41.391Z,21.05
2022-10-31T18:53:08.089Z,20.88
2022-10-31T18:55:34.902Z,19.30
2022-10-31T18:58:01.472Z,20.30
2022-10-31T19:00:28.067Z,22.80
2022-10-31T19:02:56.595Z,25.15
2022-10-31T19:05:23.414Z,20.60
2022-10-31T19:07:50.403Z,20.83
2022-10-31T19:10:17.061Z,20.60
2022-10-31T19:12:43.679Z,20.02
2022-10-31T19:15:10.605Z,20.05
2022-10-31T19:17:37.206Z,18.92
2022-10-31T19:20:05.308Z,22.38
2022-10-31T19:22:32.287Z,26.05
2022-10-31T19:24:58.944Z,19.08
2022-10-31T19:27:28.142Z,21.27
2022-10-31T19:29:54.794Z,18.92
2022-10-31T19:32:21.469Z,19.38
2022-10-31T19:34:48.096Z,18.60
2022-10-31T19:37:14.833Z,17.38
2022-10-31T19:39:44.358Z,17.20
2022-10-31T19:42:11.201Z,23.33
2022-10-31T19:44:37.843Z,22.73
2022-10-31T19:47:04.558Z,22.08
2022-10-31T19:49:31.207Z,22.08
2022-10-31T19:51:58.218Z,23.23
2022-10-31T19:54:24.936Z,21.52
2022-10-31T19:56:51.580Z,20.02
2022-10-31T19:59:18.296Z,19.02
2022-10-31T20:01:45.081Z,18.42
2022-10-31T20:04:11.926Z,19.10
2022-10-31T20:06:41.775Z,18.48
2022-10-31T20:09:10.610Z,16.63
2022-10-31T20:11:38.167Z,18.45
2022-10-31T20:14:05.253Z,15.35
2022-10-31T20:16:32.673Z,15.57
2022-10-31T20:19:29.278Z,15.88
2022-10-31T20:21:56.171Z,15.25
2022-10-31T20:24:22.971Z,15.05
2022-10-31T20:26:49.661Z,15.60
2022-10-31T20:29:16.596Z,15.48
2022-10-31T20:31:43.678Z,12.52
2022-10-31T20:34:10.826Z,14.15
2022-10-31T20:36:37.558Z,19.90
2022-10-31T20:39:28.116Z,16.08
2022-10-31T20:41:54.830Z,13.55
2022-10-31T20:44:21.676Z,13.40
2022-10-31T20:46:48.341Z,13.55
2022-10-31T20:49:15.005Z,13.50
2022-10-31T20:51:41.688Z,12.77
2022-10-31T20:54:09.454Z,13.23
2022-10-31T20:56:36.303Z,14.05
2022-10-31T20:59:03.047Z,12.30
2022-10-31T21:01:30.670Z,14.32
2022-10-31T21:03:58.555Z,15.50
2022-10-31T21:06:25.336Z,14.80
2022-10-31T21:08:52.135Z,17.55
2022-10-31T21:11:20.203Z,17.73
2022-10-31T21:13:47.751Z,18.83
2022-10-31T21:16:21.631Z,17.95
2022-10-31T21:18:49.334Z,17.00
2022-10-31T21:21:17.018Z,13.60
2022-10-31T21:23:44.159Z,13.25
2022-10-31T21:26:16.394Z,17.20
2022-10-31T21:28:43.094Z,16.63
2022-10-31T21:31:11.710Z,15.55
2022-10-31T21:33:38.664Z,13.65
2022-10-31T21:36:05.814Z,12.38
2022-10-31T21:38:32.588Z,12.25
2022-10-31T21:41:07.414Z,14.90
2022-10-31T21:43:38.172Z,17.33
2022-10-31T21:46:05.364Z,17.10
2022-10-31T21:48:33.189Z,16.52
2022-10-31T21:51:04.376Z,16.60
2022-10-31T21:53:49.675Z,15.82
2022-10-31T21:56:16.379Z,20.15
2022-10-31T21:58:43.089Z,17.48
2022-10-31T22:01:09.934Z,16.73
2022-10-31T22:03:38.720Z,15.93
2022-10-31T22:06:06.328Z,15.23
2022-10-31T22:08:33.008Z,27.30
2022-10-31T22:11:03.958Z,15.80
2022-10-31T22:13:31.705Z,15.88
2022-10-31T22:16:02.351Z,19.55
2022-10-31T22:18:29.178Z,14.10
2022-10-31T22:21:02.055Z,13.15
2022-10-31T22:23:28.965Z,13.32
2022-10-31T22:25:55.648Z,12.43
2022-10-31T22:28:22.283Z,15.45
2022-10-31T22:30:48.920Z,18.92
2022-10-31T22:33:15.582Z,20.92
2022-10-31T22:35:42.208Z,13.27
2022-10-31T22:38:08.836Z,12.23
2022-10-31T22:40:35.490Z,11.70
2022-10-31T22:43:02.467Z,11.18
2022-10-31T22:45:29.379Z,10.88
2022-10-31T22:47:56.031Z,10.00
2022-10-31T22:50:22.732Z,9.93
2022-10-31T22:52:49.478Z,8.82
2022-10-31T22:55:17.419Z,10.50
2022-10-31T22:57:44.052Z,9.25
2022-10-31T23:00:11.181Z,9.35
2022-10-31T23:02:37.939Z,7.95
2022-10-31T23:05:05.110Z,10.75
2022-10-31T23:07:33.066Z,10.70
2022-10-31T23:09:59.908Z,10.43
2022-10-31T23:12:44.905Z,11.02
2022-10-31T23:15:11.521Z,11.38
2022-10-31T23:17:39.191Z,10.77
2022-10-31T23:20:07.298Z,9.45
2022-10-31T23:22:33.992Z,8.50
2022-10-31T23:25:00.682Z,9.13
2022-10-31T23:27:27.377Z,8.40
2022-10-31T23:29:55.678Z,9.07
2022-10-31T23:32:37.807Z,9.50
2022-10-31T23:35:06.809Z,9.18
2022-10-31T23:37:34.368Z,10.23
2022-10-31T23:40:01.057Z,9.90
2022-10-31T23:42:27.888Z,10.00
2022-10-31T23:44:54.818Z,9.98
2022-10-31T23:47:21.669Z,9.02
2022-10-31T23:49:48.427Z,9.80
2022-10-31T23:52:15.202Z,9.13
2022-10-31T23:54:41.926Z,8.63
2022-10-31T23:57:08.852Z,7.68
2022-10-31T23:59:36.953Z,8.05
